sensor_id;sensor_type;location;lat;lon;timestamp;P1;durP1;ratioP1;P2;durP2;ratioP2
8909;SDS011;4490;49.072;8.804;2022-09-09T00:02:16;3.47;;;1.90;;
8909;SDS011;4490;49.072;8.804;2022-09-09T00:07:52;2.37;;;1.90;;
8909;SDS011;4490;49.072;8.804;2022-09-09T00:13:02;2.80;;;1.80;;
8909;SDS011;4490;49.072;8.804;2022-09-09T00:15:43;6.57;;;2.23;;
8909;SDS011;4490;49.072;8.804;2022-09-09T00:18:26;4.20;;;1.60;;
8909;SDS011;4490;49.072;8.804;2022-09-09T00:21:06;5.17;;;1.70;;
8909;SDS011;4490;49.072;8.804;2022-09-09T00:23:44;2.37;;;1.70;;
8909;SDS011;4490;49.072;8.804;2022-09-09T00:31:37;3.80;;;2.03;;
8909;SDS011;4490;49.072;8.804;2022-09-09T00:34:08;3.67;;;2.00;;
8909;SDS011;4490;49.072;8.804;2022-09-09T00:36:41;5.47;;;2.23;;
8909;SDS011;4490;49.072;8.804;2022-09-09T00:44:38;3.23;;;2.40;;
8909;SDS011;4490;49.072;8.804;2022-09-09T00:50:10;5.80;;;2.23;;
8909;SDS011;4490;49.072;8.804;2022-09-09T00:53:02;4.73;;;2.40;;
8909;SDS011;4490;49.072;8.804;2022-09-09T00:57:59;5.20;;;2.27;;
8909;SDS011;4490;49.072;8.804;2022-09-09T01:00:26;4.47;;;2.20;;
8909;SDS011;4490;49.072;8.804;2022-09-09T01:05:51;3.23;;;2.23;;
8909;SDS011;4490;49.072;8.804;2022-09-09T01:08:35;2.90;;;2.03;;
8909;SDS011;4490;49.072;8.804;2022-09-09T01:11:09;3.33;;;2.10;;
8909;SDS011;4490;49.072;8.804;2022-09-09T01:13:45;2.77;;;2.10;;
8909;SDS011;4490;49.072;8.804;2022-09-09T01:16:12;3.50;;;1.90;;
8909;SDS011;4490;49.072;8.804;2022-09-09T01:18:40;2.77;;;1.90;;
8909;SDS011;4490;49.072;8.804;2022-09-09T01:26:47;4.00;;;2.20;;
8909;SDS011;4490;49.072;8.804;2022-09-09T01:29:17;3.00;;;1.97;;
8909;SDS011;4490;49.072;8.804;2022-09-09T01:34:23;4.10;;;1.80;;
8909;SDS011;4490;49.072;8.804;2022-09-09T01:37:06;3.30;;;1.70;;
8909;SDS011;4490;49.072;8.804;2022-09-09T01:39:34;3.40;;;1.63;;
8909;SDS011;4490;49.072;8.804;2022-09-09T01:42:02;3.27;;;1.70;;
8909;SDS011;4490;49.072;8.804;2022-09-09T01:44:32;4.97;;;1.83;;
8909;SDS011;4490;49.072;8.804;2022-09-09T01:46:59;5.60;;;1.60;;
8909;SDS011;4490;49.072;8.804;2022-09-09T01:49:24;2.57;;;1.60;;
8909;SDS011;4490;49.072;8.804;2022-09-09T01:51:52;3.60;;;1.60;;
8909;SDS011;4490;49.072;8.804;2022-09-09T01:54:20;3.43;;;1.40;;
8909;SDS011;4490;49.072;8.804;2022-09-09T01:57:10;6.93;;;1.87;;
8909;SDS011;4490;49.072;8.804;2022-09-09T01:59:50;3.87;;;1.60;;
8909;SDS011;4490;49.072;8.804;2022-09-09T02:02:24;7.97;;;1.83;;
8909;SDS011;4490;49.072;8.804;2022-09-09T02:10:16;3.53;;;1.50;;
8909;SDS011;4490;49.072;8.804;2022-09-09T02:12:50;5.53;;;1.57;;
8909;SDS011;4490;49.072;8.804;2022-09-09T02:18:06;3.73;;;1.50;;
8909;SDS011;4490;49.072;8.804;2022-09-09T02:20:36;1.63;;;1.30;;
8909;SDS011;4490;49.072;8.804;2022-09-09T02:23:04;3.60;;;1.20;;
8909;SDS011;4490;49.072;8.804;2022-09-09T02:25:33;3.07;;;1.27;;
8909;SDS011;4490;49.072;8.804;2022-09-09T02:28:01;4.73;;;1.37;;
8909;SDS011;4490;49.072;8.804;2022-09-09T02:30:31;5.10;;;1.23;;
8909;SDS011;4490;49.072;8.804;2022-09-09T02:32:59;3.03;;;1.00;;
8909;SDS011;4490;49.072;8.804;2022-09-09T02:35:28;4.73;;;1.00;;
8909;SDS011;4490;49.072;8.804;2022-09-09T02:37:56;6.37;;;1.73;;
8909;SDS011;4490;49.072;8.804;2022-09-09T02:40:26;3.73;;;1.23;;
8909;SDS011;4490;49.072;8.804;2022-09-09T02:42:51;3.73;;;1.10;;
8909;SDS011;4490;49.072;8.804;2022-09-09T02:45:21;2.10;;;0.90;;
8909;SDS011;4490;49.072;8.804;2022-09-09T02:48:52;2.13;;;1.20;;
8909;SDS011;4490;49.072;8.804;2022-09-09T02:51:12;3.57;;;1.20;;
8909;SDS011;4490;49.072;8.804;2022-09-09T02:56:39;2.57;;;1.40;;
8909;SDS011;4490;49.072;8.804;2022-09-09T02:59:10;1.67;;;1.20;;
8909;SDS011;4490;49.072;8.804;2022-09-09T03:01:36;2.80;;;1.50;;
8909;SDS011;4490;49.072;8.804;2022-09-09T03:04:05;2.30;;;1.30;;
8909;SDS011;4490;49.072;8.804;2022-09-09T03:06:30;2.80;;;1.17;;
8909;SDS011;4490;49.072;8.804;2022-09-09T03:08:56;2.17;;;1.27;;
8909;SDS011;4490;49.072;8.804;2022-09-09T03:11:25;2.17;;;1.30;;
8909;SDS011;4490;49.072;8.804;2022-09-09T03:13:52;4.63;;;1.30;;
8909;SDS011;4490;49.072;8.804;2022-09-09T03:16:20;2.67;;;1.30;;
8909;SDS011;4490;49.072;8.804;2022-09-09T03:18:47;2.60;;;1.30;;
8909;SDS011;4490;49.072;8.804;2022-09-09T03:21:12;2.30;;;1.30;;
8909;SDS011;4490;49.072;8.804;2022-09-09T03:23:39;1.63;;;1.20;;
8909;SDS011;4490;49.072;8.804;2022-09-09T03:26:05;1.67;;;1.20;;
8909;SDS011;4490;49.072;8.804;2022-09-09T03:28:31;2.00;;;1.30;;
8909;SDS011;4490;49.072;8.804;2022-09-09T03:31:00;2.37;;;1.20;;
8909;SDS011;4490;49.072;8.804;2022-09-09T03:33:26;2.40;;;1.20;;
8909;SDS011;4490;49.072;8.804;2022-09-09T03:35:53;3.70;;;1.30;;
8909;SDS011;4490;49.072;8.804;2022-09-09T03:38:22;3.13;;;1.30;;
8909;SDS011;4490;49.072;8.804;2022-09-09T03:40:51;3.43;;;1.20;;
8909;SDS011;4490;49.072;8.804;2022-09-09T03:43:22;3.60;;;1.23;;
8909;SDS011;4490;49.072;8.804;2022-09-09T03:45:51;1.33;;;0.97;;
8909;SDS011;4490;49.072;8.804;2022-09-09T03:48:17;3.50;;;1.33;;
8909;SDS011;4490;49.072;8.804;2022-09-09T03:50:47;1.23;;;1.13;;
8909;SDS011;4490;49.072;8.804;2022-09-09T03:53:16;3.20;;;1.13;;
8909;SDS011;4490;49.072;8.804;2022-09-09T03:55:47;3.80;;;1.30;;
8909;SDS011;4490;49.072;8.804;2022-09-09T03:58:15;1.93;;;1.20;;
8909;SDS011;4490;49.072;8.804;2022-09-09T04:00:43;1.50;;;1.23;;
8909;SDS011;4490;49.072;8.804;2022-09-09T04:03:17;3.07;;;1.37;;
8909;SDS011;4490;49.072;8.804;2022-09-09T04:05:43;4.40;;;1.40;;
8909;SDS011;4490;49.072;8.804;2022-09-09T04:08:09;4.83;;;1.67;;
8909;SDS011;4490;49.072;8.804;2022-09-09T04:10:35;4.33;;;1.20;;
8909;SDS011;4490;49.072;8.804;2022-09-09T04:13:02;2.20;;;1.20;;
8909;SDS011;4490;49.072;8.804;2022-09-09T04:15:28;2.20;;;1.27;;
8909;SDS011;4490;49.072;8.804;2022-09-09T04:17:55;2.67;;;1.30;;
8909;SDS011;4490;49.072;8.804;2022-09-09T04:20:20;3.20;;;1.30;;
8909;SDS011;4490;49.072;8.804;2022-09-09T04:22:47;1.90;;;1.20;;
8909;SDS011;4490;49.072;8.804;2022-09-09T04:25:13;2.97;;;1.30;;
8909;SDS011;4490;49.072;8.804;2022-09-09T04:27:39;2.37;;;1.50;;
8909;SDS011;4490;49.072;8.804;2022-09-09T04:30:06;2.27;;;1.50;;
8909;SDS011;4490;49.072;8.804;2022-09-09T04:32:35;2.53;;;1.20;;
8909;SDS011;4490;49.072;8.804;2022-09-09T04:35:02;4.03;;;1.30;;
8909;SDS011;4490;49.072;8.804;2022-09-09T04:37:28;1.57;;;1.17;;
8909;SDS011;4490;49.072;8.804;2022-09-09T04:39:53;2.80;;;1.37;;
8909;SDS011;4490;49.072;8.804;2022-09-09T04:42:19;2.07;;;1.10;;
8909;SDS011;4490;49.072;8.804;2022-09-09T04:44:45;2.60;;;1.23;;
8909;SDS011;4490;49.072;8.804;2022-09-09T04:47:10;2.87;;;1.30;;
8909;SDS011;4490;49.072;8.804;2022-09-09T04:49:36;1.93;;;1.10;;
8909;SDS011;4490;49.072;8.804;2022-09-09T04:52:03;2.30;;;1.33;;
8909;SDS011;4490;49.072;8.804;2022-09-09T04:54:29;2.43;;;1.20;;
8909;SDS011;4490;49.072;8.804;2022-09-09T04:56:55;2.27;;;1.20;;
8909;SDS011;4490;49.072;8.804;2022-09-09T04:59:21;2.93;;;1.30;;
8909;SDS011;4490;49.072;8.804;2022-09-09T05:01:47;3.37;;;1.40;;
8909;SDS011;4490;49.072;8.804;2022-09-09T05:04:15;3.33;;;1.20;;
8909;SDS011;4490;49.072;8.804;2022-09-09T05:06:41;2.13;;;1.13;;
8909;SDS011;4490;49.072;8.804;2022-09-09T05:09:07;1.97;;;1.10;;
8909;SDS011;4490;49.072;8.804;2022-09-09T05:11:33;3.40;;;1.30;;
8909;SDS011;4490;49.072;8.804;2022-09-09T05:14:01;3.43;;;1.20;;
8909;SDS011;4490;49.072;8.804;2022-09-09T05:16:27;2.83;;;1.20;;
8909;SDS011;4490;49.072;8.804;2022-09-09T05:18:53;1.60;;;1.20;;
8909;SDS011;4490;49.072;8.804;2022-09-09T05:21:19;2.17;;;1.23;;
8909;SDS011;4490;49.072;8.804;2022-09-09T05:23:48;1.77;;;1.20;;
8909;SDS011;4490;49.072;8.804;2022-09-09T05:26:17;2.30;;;1.20;;
8909;SDS011;4490;49.072;8.804;2022-09-09T05:28:45;2.50;;;1.17;;
8909;SDS011;4490;49.072;8.804;2022-09-09T05:31:11;2.87;;;1.10;;
8909;SDS011;4490;49.072;8.804;2022-09-09T05:33:38;3.00;;;1.40;;
8909;SDS011;4490;49.072;8.804;2022-09-09T05:36:12;2.53;;;1.50;;
8909;SDS011;4490;49.072;8.804;2022-09-09T05:38:40;3.83;;;1.10;;
8909;SDS011;4490;49.072;8.804;2022-09-09T05:41:06;1.77;;;1.20;;
8909;SDS011;4490;49.072;8.804;2022-09-09T05:43:33;1.30;;;1.10;;
8909;SDS011;4490;49.072;8.804;2022-09-09T05:48:31;2.43;;;1.27;;
8909;SDS011;4490;49.072;8.804;2022-09-09T05:50:58;1.83;;;1.20;;
8909;SDS011;4490;49.072;8.804;2022-09-09T05:53:24;2.50;;;1.23;;
8909;SDS011;4490;49.072;8.804;2022-09-09T05:55:59;1.60;;;1.23;;
8909;SDS011;4490;49.072;8.804;2022-09-09T05:58:32;2.63;;;1.13;;
8909;SDS011;4490;49.072;8.804;2022-09-09T06:03:31;2.93;;;1.27;;
8909;SDS011;4490;49.072;8.804;2022-09-09T06:06:00;2.50;;;1.20;;
8909;SDS011;4490;49.072;8.804;2022-09-09T06:08:27;4.50;;;1.33;;
8909;SDS011;4490;49.072;8.804;2022-09-09T06:10:52;3.20;;;1.40;;
8909;SDS011;4490;49.072;8.804;2022-09-09T06:13:18;2.67;;;1.20;;
8909;SDS011;4490;49.072;8.804;2022-09-09T06:15:50;6.17;;;1.27;;
8909;SDS011;4490;49.072;8.804;2022-09-09T06:18:17;3.10;;;1.50;;
8909;SDS011;4490;49.072;8.804;2022-09-09T06:20:52;2.00;;;1.27;;
8909;SDS011;4490;49.072;8.804;2022-09-09T06:23:25;3.57;;;1.43;;
8909;SDS011;4490;49.072;8.804;2022-09-09T06:25:52;3.10;;;1.00;;
8909;SDS011;4490;49.072;8.804;2022-09-09T06:28:35;1.60;;;1.20;;
8909;SDS011;4490;49.072;8.804;2022-09-09T06:31:02;3.57;;;1.27;;
8909;SDS011;4490;49.072;8.804;2022-09-09T06:33:33;3.13;;;1.67;;
8909;SDS011;4490;49.072;8.804;2022-09-09T06:36:00;3.77;;;1.33;;
8909;SDS011;4490;49.072;8.804;2022-09-09T06:38:27;2.10;;;1.10;;
8909;SDS011;4490;49.072;8.804;2022-09-09T06:40:56;2.10;;;1.10;;
8909;SDS011;4490;49.072;8.804;2022-09-09T06:43:24;3.93;;;1.07;;
8909;SDS011;4490;49.072;8.804;2022-09-09T06:45:54;2.37;;;1.27;;
8909;SDS011;4490;49.072;8.804;2022-09-09T06:48:23;2.70;;;1.40;;
8909;SDS011;4490;49.072;8.804;2022-09-09T06:50:51;2.73;;;1.10;;
8909;SDS011;4490;49.072;8.804;2022-09-09T06:53:25;2.53;;;1.20;;
8909;SDS011;4490;49.072;8.804;2022-09-09T06:55:52;3.80;;;1.40;;
8909;SDS011;4490;49.072;8.804;2022-09-09T06:58:17;4.20;;;1.30;;
8909;SDS011;4490;49.072;8.804;2022-09-09T07:00:43;5.03;;;1.47;;
8909;SDS011;4490;49.072;8.804;2022-09-09T07:03:09;1.77;;;1.20;;
8909;SDS011;4490;49.072;8.804;2022-09-09T07:05:35;2.03;;;0.93;;
8909;SDS011;4490;49.072;8.804;2022-09-09T07:08:02;4.67;;;1.23;;
8909;SDS011;4490;49.072;8.804;2022-09-09T07:10:27;3.47;;;1.37;;
8909;SDS011;4490;49.072;8.804;2022-09-09T07:12:53;3.63;;;1.20;;
8909;SDS011;4490;49.072;8.804;2022-09-09T07:15:19;3.57;;;1.10;;
8909;SDS011;4490;49.072;8.804;2022-09-09T07:17:46;6.97;;;1.60;;
8909;SDS011;4490;49.072;8.804;2022-09-09T07:20:13;3.37;;;1.27;;
8909;SDS011;4490;49.072;8.804;2022-09-09T07:22:39;3.13;;;1.27;;
8909;SDS011;4490;49.072;8.804;2022-09-09T07:25:06;6.43;;;1.40;;
8909;SDS011;4490;49.072;8.804;2022-09-09T07:27:32;7.90;;;1.40;;
8909;SDS011;4490;49.072;8.804;2022-09-09T07:29:58;4.70;;;1.40;;
8909;SDS011;4490;49.072;8.804;2022-09-09T07:32:24;2.53;;;1.40;;
8909;SDS011;4490;49.072;8.804;2022-09-09T07:34:55;4.53;;;1.50;;
8909;SDS011;4490;49.072;8.804;2022-09-09T07:37:23;2.43;;;1.40;;
8909;SDS011;4490;49.072;8.804;2022-09-09T07:39:49;5.17;;;1.53;;
8909;SDS011;4490;49.072;8.804;2022-09-09T07:42:16;3.53;;;1.07;;
8909;SDS011;4490;49.072;8.804;2022-09-09T07:44:41;3.63;;;1.23;;
8909;SDS011;4490;49.072;8.804;2022-09-09T07:47:07;2.67;;;1.23;;
8909;SDS011;4490;49.072;8.804;2022-09-09T07:49:33;4.73;;;1.63;;
8909;SDS011;4490;49.072;8.804;2022-09-09T07:51:59;3.95;;;1.38;;
8909;SDS011;4490;49.072;8.804;2022-09-09T07:54:24;2.42;;;1.20;;
8909;SDS011;4490;49.072;8.804;2022-09-09T07:56:52;4.72;;;1.50;;
8909;SDS011;4490;49.072;8.804;2022-09-09T07:59:18;7.07;;;1.52;;
8909;SDS011;4490;49.072;8.804;2022-09-09T08:01:45;3.05;;;1.40;;
8909;SDS011;4490;49.072;8.804;2022-09-09T08:04:14;5.22;;;1.50;;
8909;SDS011;4490;49.072;8.804;2022-09-09T08:06:46;5.27;;;1.50;;
8909;SDS011;4490;49.072;8.804;2022-09-09T08:09:14;2.40;;;1.47;;
8909;SDS011;4490;49.072;8.804;2022-09-09T08:11:40;4.85;;;1.45;;
8909;SDS011;4490;49.072;8.804;2022-09-09T08:14:08;7.15;;;1.70;;
8909;SDS011;4490;49.072;8.804;2022-09-09T08:16:36;4.80;;;1.60;;
8909;SDS011;4490;49.072;8.804;2022-09-09T08:19:04;6.47;;;1.70;;
8909;SDS011;4490;49.072;8.804;2022-09-09T08:21:31;2.75;;;1.50;;
8909;SDS011;4490;49.072;8.804;2022-09-09T08:23:59;4.45;;;1.33;;
8909;SDS011;4490;49.072;8.804;2022-09-09T08:26:27;4.25;;;1.42;;
8909;SDS011;4490;49.072;8.804;2022-09-09T08:28:55;5.75;;;1.55;;
8909;SDS011;4490;49.072;8.804;2022-09-09T08:31:22;3.30;;;1.58;;
8909;SDS011;4490;49.072;8.804;2022-09-09T08:34:14;2.45;;;1.23;;
8909;SDS011;4490;49.072;8.804;2022-09-09T08:36:41;2.38;;;1.40;;
8909;SDS011;4490;49.072;8.804;2022-09-09T08:39:09;3.20;;;1.30;;
8909;SDS011;4490;49.072;8.804;2022-09-09T08:53:00;2.75;;;1.30;;
8909;SDS011;4490;49.072;8.804;2022-09-09T08:55:41;3.28;;;1.40;;
8909;SDS011;4490;49.072;8.804;2022-09-09T08:58:25;3.13;;;1.30;;
8909;SDS011;4490;49.072;8.804;2022-09-09T09:06:13;4.88;;;1.38;;
8909;SDS011;4490;49.072;8.804;2022-09-09T09:11:22;3.40;;;1.20;;
8909;SDS011;4490;49.072;8.804;2022-09-09T09:13:54;2.33;;;1.10;;
8909;SDS011;4490;49.072;8.804;2022-09-09T09:19:00;2.20;;;1.08;;
8909;SDS011;4490;49.072;8.804;2022-09-09T09:21:32;2.33;;;1.00;;
8909;SDS011;4490;49.072;8.804;2022-09-09T09:24:04;3.22;;;1.23;;
8909;SDS011;4490;49.072;8.804;2022-09-09T09:26:40;1.73;;;1.00;;
8909;SDS011;4490;49.072;8.804;2022-09-09T09:29:10;3.17;;;1.20;;
8909;SDS011;4490;49.072;8.804;2022-09-09T09:31:47;3.80;;;1.38;;
8909;SDS011;4490;49.072;8.804;2022-09-09T09:34:17;4.15;;;1.40;;
8909;SDS011;4490;49.072;8.804;2022-09-09T09:39:21;2.63;;;1.20;;
8909;SDS011;4490;49.072;8.804;2022-09-09T09:41:52;3.50;;;1.38;;
8909;SDS011;4490;49.072;8.804;2022-09-09T09:46:51;3.50;;;1.40;;
8909;SDS011;4490;49.072;8.804;2022-09-09T09:49:17;3.20;;;1.50;;
8909;SDS011;4490;49.072;8.804;2022-09-09T09:51:43;3.33;;;1.40;;
8909;SDS011;4490;49.072;8.804;2022-09-09T09:54:27;3.63;;;1.45;;
8909;SDS011;4490;49.072;8.804;2022-09-09T09:57:11;4.18;;;1.23;;
8909;SDS011;4490;49.072;8.804;2022-09-09T09:59:39;4.32;;;1.30;;
8909;SDS011;4490;49.072;8.804;2022-09-09T10:02:18;2.00;;;1.30;;
8909;SDS011;4490;49.072;8.804;2022-09-09T10:05:00;4.10;;;1.30;;
8909;SDS011;4490;49.072;8.804;2022-09-09T10:07:29;2.65;;;1.10;;
8909;SDS011;4490;49.072;8.804;2022-09-09T10:09:56;5.07;;;1.63;;
8909;SDS011;4490;49.072;8.804;2022-09-09T10:15:48;2.30;;;1.13;;
8909;SDS011;4490;49.072;8.804;2022-09-09T10:21:52;3.05;;;1.27;;
8909;SDS011;4490;49.072;8.804;2022-09-09T10:27:24;3.70;;;1.25;;
8909;SDS011;4490;49.072;8.804;2022-09-09T10:29:59;2.72;;;1.30;;
8909;SDS011;4490;49.072;8.804;2022-09-09T10:33:07;3.58;;;1.30;;
8909;SDS011;4490;49.072;8.804;2022-09-09T10:35:34;2.55;;;1.30;;
8909;SDS011;4490;49.072;8.804;2022-09-09T10:38:18;3.60;;;1.30;;
8909;SDS011;4490;49.072;8.804;2022-09-09T10:41:16;4.57;;;1.20;;
8909;SDS011;4490;49.072;8.804;2022-09-09T10:52:22;3.13;;;1.35;;
8909;SDS011;4490;49.072;8.804;2022-09-09T10:55:14;2.15;;;1.20;;
8909;SDS011;4490;49.072;8.804;2022-09-09T11:02:39;2.80;;;1.27;;
8909;SDS011;4490;49.072;8.804;2022-09-09T11:05:17;2.40;;;1.30;;
8909;SDS011;4490;49.072;8.804;2022-09-09T11:07:55;4.32;;;1.50;;
8909;SDS011;4490;49.072;8.804;2022-09-09T11:16:29;4.10;;;1.33;;
8909;SDS011;4490;49.072;8.804;2022-09-09T11:19:26;1.98;;;1.00;;
8909;SDS011;4490;49.072;8.804;2022-09-09T11:21:59;3.28;;;1.00;;
8909;SDS011;4490;49.072;8.804;2022-09-09T11:27:57;4.28;;;1.48;;
8909;SDS011;4490;49.072;8.804;2022-09-09T11:34:03;2.42;;;1.13;;
8909;SDS011;4490;49.072;8.804;2022-09-09T11:41:49;2.97;;;1.10;;
8909;SDS011;4490;49.072;8.804;2022-09-09T11:44:17;1.90;;;1.10;;
8909;SDS011;4490;49.072;8.804;2022-09-09T11:46:50;4.03;;;1.10;;
8909;SDS011;4490;49.072;8.804;2022-09-09T11:49:27;2.95;;;1.40;;
8909;SDS011;4490;49.072;8.804;2022-09-09T11:51:56;2.72;;;1.05;;
8909;SDS011;4490;49.072;8.804;2022-09-09T11:54:28;2.60;;;1.20;;
8909;SDS011;4490;49.072;8.804;2022-09-09T11:57:23;3.42;;;1.02;;
8909;SDS011;4490;49.072;8.804;2022-09-09T11:59:57;2.33;;;1.00;;
8909;SDS011;4490;49.072;8.804;2022-09-09T12:02:24;2.00;;;1.20;;
8909;SDS011;4490;49.072;8.804;2022-09-09T12:04:57;1.65;;;0.90;;
8909;SDS011;4490;49.072;8.804;2022-09-09T12:07:37;1.15;;;1.00;;
8909;SDS011;4490;49.072;8.804;2022-09-09T12:12:53;2.53;;;1.10;;
8909;SDS011;4490;49.072;8.804;2022-09-09T12:15:21;1.35;;;0.80;;
8909;SDS011;4490;49.072;8.804;2022-09-09T12:17:54;1.88;;;1.10;;
8909;SDS011;4490;49.072;8.804;2022-09-09T12:25:47;1.23;;;1.00;;
8909;SDS011;4490;49.072;8.804;2022-09-09T12:28:27;2.22;;;0.98;;
8909;SDS011;4490;49.072;8.804;2022-09-09T12:33:37;3.53;;;1.25;;
8909;SDS011;4490;49.072;8.804;2022-09-09T12:36:10;1.63;;;1.02;;
8909;SDS011;4490;49.072;8.804;2022-09-09T12:38:40;1.02;;;0.90;;
8909;SDS011;4490;49.072;8.804;2022-09-09T12:41:28;3.95;;;1.23;;
8909;SDS011;4490;49.072;8.804;2022-09-09T12:44:08;2.78;;;1.17;;
8909;SDS011;4490;49.072;8.804;2022-09-09T12:46:41;1.45;;;1.13;;
8909;SDS011;4490;49.072;8.804;2022-09-09T12:52:04;2.22;;;1.10;;
8909;SDS011;4490;49.072;8.804;2022-09-09T12:54:38;2.70;;;1.20;;
8909;SDS011;4490;49.072;8.804;2022-09-09T12:57:11;3.55;;;1.15;;
8909;SDS011;4490;49.072;8.804;2022-09-09T12:59:39;2.70;;;1.20;;
8909;SDS011;4490;49.072;8.804;2022-09-09T13:02:17;2.17;;;1.30;;
8909;SDS011;4490;49.072;8.804;2022-09-09T13:04:46;1.33;;;1.00;;
8909;SDS011;4490;49.072;8.804;2022-09-09T13:07:12;4.88;;;1.30;;
8909;SDS011;4490;49.072;8.804;2022-09-09T13:09:40;3.65;;;1.25;;
8909;SDS011;4490;49.072;8.804;2022-09-09T13:12:09;9.20;;;1.38;;
8909;SDS011;4490;49.072;8.804;2022-09-09T13:14:48;3.03;;;1.30;;
8909;SDS011;4490;49.072;8.804;2022-09-09T13:17:26;2.20;;;1.20;;
8909;SDS011;4490;49.072;8.804;2022-09-09T13:19:54;2.72;;;1.30;;
8909;SDS011;4490;49.072;8.804;2022-09-09T13:22:31;2.53;;;1.30;;
8909;SDS011;4490;49.072;8.804;2022-09-09T13:25:51;1.58;;;1.10;;
8909;SDS011;4490;49.072;8.804;2022-09-09T13:28:03;2.72;;;1.30;;
8909;SDS011;4490;49.072;8.804;2022-09-09T13:30:34;1.45;;;1.00;;
8909;SDS011;4490;49.072;8.804;2022-09-09T13:38:22;1.63;;;0.88;;
8909;SDS011;4490;49.072;8.804;2022-09-09T13:41:03;2.25;;;0.73;;
8909;SDS011;4490;49.072;8.804;2022-09-09T13:43:43;1.30;;;0.98;;
8909;SDS011;4490;49.072;8.804;2022-09-09T13:48:56;2.42;;;1.10;;
8909;SDS011;4490;49.072;8.804;2022-09-09T13:51:34;2.72;;;1.00;;
8909;SDS011;4490;49.072;8.804;2022-09-09T13:54:06;1.23;;;0.90;;
8909;SDS011;4490;49.072;8.804;2022-09-09T13:56:34;3.80;;;1.08;;
8909;SDS011;4490;49.072;8.804;2022-09-09T13:59:00;1.42;;;0.90;;
8909;SDS011;4490;49.072;8.804;2022-09-09T14:01:27;4.05;;;0.98;;
8909;SDS011;4490;49.072;8.804;2022-09-09T14:03:53;4.53;;;1.40;;
8909;SDS011;4490;49.072;8.804;2022-09-09T14:06:19;3.03;;;1.30;;
8909;SDS011;4490;49.072;8.804;2022-09-09T14:08:47;2.13;;;1.00;;
8909;SDS011;4490;49.072;8.804;2022-09-09T14:11:14;3.92;;;1.45;;
8909;SDS011;4490;49.072;8.804;2022-09-09T14:13:40;3.53;;;1.45;;
8909;SDS011;4490;49.072;8.804;2022-09-09T14:16:05;3.42;;;1.20;;
8909;SDS011;4490;49.072;8.804;2022-09-09T14:18:31;3.78;;;1.30;;
8909;SDS011;4490;49.072;8.804;2022-09-09T14:20:57;6.75;;;1.13;;
8909;SDS011;4490;49.072;8.804;2022-09-09T14:23:23;2.67;;;1.10;;
8909;SDS011;4490;49.072;8.804;2022-09-09T14:25:49;2.63;;;1.10;;
8909;SDS011;4490;49.072;8.804;2022-09-09T14:28:15;2.53;;;1.10;;
8909;SDS011;4490;49.072;8.804;2022-09-09T14:30:42;3.72;;;1.23;;
8909;SDS011;4490;49.072;8.804;2022-09-09T14:33:09;1.90;;;1.00;;
8909;SDS011;4490;49.072;8.804;2022-09-09T14:35:36;2.13;;;1.05;;
8909;SDS011;4490;49.072;8.804;2022-09-09T14:38:03;2.42;;;1.10;;
8909;SDS011;4490;49.072;8.804;2022-09-09T14:40:29;2.72;;;1.10;;
8909;SDS011;4490;49.072;8.804;2022-09-09T14:42:55;3.70;;;1.30;;
8909;SDS011;4490;49.072;8.804;2022-09-09T14:45:21;1.45;;;1.20;;
8909;SDS011;4490;49.072;8.804;2022-09-09T14:47:50;2.65;;;1.30;;
8909;SDS011;4490;49.072;8.804;2022-09-09T14:50:16;4.32;;;1.30;;
8909;SDS011;4490;49.072;8.804;2022-09-09T14:52:43;1.73;;;1.13;;
8909;SDS011;4490;49.072;8.804;2022-09-09T14:55:09;3.83;;;1.25;;
8909;SDS011;4490;49.072;8.804;2022-09-09T14:57:34;2.95;;;1.20;;
8909;SDS011;4490;49.072;8.804;2022-09-09T15:00:01;3.97;;;1.60;;
8909;SDS011;4490;49.072;8.804;2022-09-09T15:02:28;2.47;;;1.38;;
8909;SDS011;4490;49.072;8.804;2022-09-09T15:04:55;3.95;;;1.10;;
8909;SDS011;4490;49.072;8.804;2022-09-09T15:07:23;1.60;;;1.05;;
8909;SDS011;4490;49.072;8.804;2022-09-09T15:09:53;4.15;;;1.23;;
8909;SDS011;4490;49.072;8.804;2022-09-09T15:12:19;6.22;;;1.73;;
8909;SDS011;4490;49.072;8.804;2022-09-09T15:14:45;3.92;;;1.40;;
8909;SDS011;4490;49.072;8.804;2022-09-09T15:17:12;4.63;;;1.63;;
8909;SDS011;4490;49.072;8.804;2022-09-09T15:19:38;3.42;;;1.50;;
8909;SDS011;4490;49.072;8.804;2022-09-09T15:22:04;3.78;;;1.27;;
8909;SDS011;4490;49.072;8.804;2022-09-09T15:24:33;4.85;;;1.42;;
8909;SDS011;4490;49.072;8.804;2022-09-09T15:26:59;4.80;;;1.38;;
8909;SDS011;4490;49.072;8.804;2022-09-09T15:29:26;2.58;;;1.30;;
8909;SDS011;4490;49.072;8.804;2022-09-09T15:31:55;2.53;;;1.27;;
8909;SDS011;4490;49.072;8.804;2022-09-09T15:34:21;2.15;;;1.25;;
8909;SDS011;4490;49.072;8.804;2022-09-09T15:36:47;3.25;;;1.40;;
8909;SDS011;4490;49.072;8.804;2022-09-09T15:39:15;1.45;;;1.10;;
8909;SDS011;4490;49.072;8.804;2022-09-09T15:41:43;1.20;;;1.10;;
8909;SDS011;4490;49.072;8.804;2022-09-09T15:44:10;3.05;;;1.48;;
8909;SDS011;4490;49.072;8.804;2022-09-09T15:46:46;1.67;;;1.00;;
8909;SDS011;4490;49.072;8.804;2022-09-09T15:49:19;3.85;;;1.27;;
8909;SDS011;4490;49.072;8.804;2022-09-09T15:51:54;3.92;;;1.08;;
8909;SDS011;4490;49.072;8.804;2022-09-09T15:54:22;4.90;;;1.33;;
8909;SDS011;4490;49.072;8.804;2022-09-09T15:56:56;2.10;;;1.20;;
8909;SDS011;4490;49.072;8.804;2022-09-09T15:59:23;3.03;;;1.00;;
8909;SDS011;4490;49.072;8.804;2022-09-09T16:01:50;2.17;;;0.90;;
8909;SDS011;4490;49.072;8.804;2022-09-09T16:04:17;2.00;;;1.02;;
8909;SDS011;4490;49.072;8.804;2022-09-09T16:07:01;1.90;;;1.10;;
8909;SDS011;4490;49.072;8.804;2022-09-09T16:09:29;2.15;;;0.80;;
8909;SDS011;4490;49.072;8.804;2022-09-09T16:11:56;1.83;;;0.93;;
8909;SDS011;4490;49.072;8.804;2022-09-09T16:14:23;1.52;;;1.05;;
8909;SDS011;4490;49.072;8.804;2022-09-09T16:16:50;3.38;;;0.90;;
8909;SDS011;4490;49.072;8.804;2022-09-09T16:19:16;3.05;;;0.90;;
8909;SDS011;4490;49.072;8.804;2022-09-09T16:21:42;1.75;;;1.00;;
8909;SDS011;4490;49.072;8.804;2022-09-09T16:24:11;1.55;;;0.93;;
8909;SDS011;4490;49.072;8.804;2022-09-09T16:26:40;2.30;;;1.08;;
8909;SDS011;4490;49.072;8.804;2022-09-09T16:29:09;5.80;;;1.30;;
8909;SDS011;4490;49.072;8.804;2022-09-09T16:31:36;1.55;;;0.90;;
8909;SDS011;4490;49.072;8.804;2022-09-09T16:34:02;1.63;;;0.90;;
8909;SDS011;4490;49.072;8.804;2022-09-09T16:36:29;2.25;;;1.13;;
8909;SDS011;4490;49.072;8.804;2022-09-09T16:38:57;2.22;;;0.90;;
8909;SDS011;4490;49.072;8.804;2022-09-09T16:41:25;0.88;;;0.70;;
8909;SDS011;4490;49.072;8.804;2022-09-09T16:43:53;1.83;;;0.90;;
8909;SDS011;4490;49.072;8.804;2022-09-09T16:46:20;1.98;;;1.08;;
8909;SDS011;4490;49.072;8.804;2022-09-09T16:48:47;0.98;;;0.60;;
8909;SDS011;4490;49.072;8.804;2022-09-09T16:51:18;2.38;;;1.08;;
8909;SDS011;4490;49.072;8.804;2022-09-09T16:53:49;4.20;;;1.00;;
8909;SDS011;4490;49.072;8.804;2022-09-09T16:56:16;1.20;;;0.68;;
8909;SDS011;4490;49.072;8.804;2022-09-09T16:58:53;1.65;;;0.85;;
8909;SDS011;4490;49.072;8.804;2022-09-09T17:01:24;1.83;;;0.80;;
8909;SDS011;4490;49.072;8.804;2022-09-09T17:03:54;2.15;;;0.93;;
8909;SDS011;4490;49.072;8.804;2022-09-09T17:06:20;2.50;;;0.80;;
8909;SDS011;4490;49.072;8.804;2022-09-09T17:08:47;0.90;;;0.90;;
8909;SDS011;4490;49.072;8.804;2022-09-09T17:11:18;3.80;;;1.10;;
8909;SDS011;4490;49.072;8.804;2022-09-09T17:13:45;1.00;;;0.90;;
8909;SDS011;4490;49.072;8.804;2022-09-09T17:16:12;1.73;;;0.80;;
8909;SDS011;4490;49.072;8.804;2022-09-09T17:18:39;1.80;;;0.70;;
8909;SDS011;4490;49.072;8.804;2022-09-09T17:21:06;2.10;;;0.55;;
8909;SDS011;4490;49.072;8.804;2022-09-09T17:23:38;1.17;;;0.88;;
8909;SDS011;4490;49.072;8.804;2022-09-09T17:26:05;1.70;;;0.83;;
8909;SDS011;4490;49.072;8.804;2022-09-09T17:28:35;1.83;;;1.00;;
8909;SDS011;4490;49.072;8.804;2022-09-09T17:31:04;2.60;;;0.80;;
8909;SDS011;4490;49.072;8.804;2022-09-09T17:33:35;0.80;;;0.77;;
8909;SDS011;4490;49.072;8.804;2022-09-09T17:36:06;1.80;;;0.93;;
8909;SDS011;4490;49.072;8.804;2022-09-09T17:38:34;1.90;;;0.70;;
8909;SDS011;4490;49.072;8.804;2022-09-09T17:41:00;5.93;;;1.10;;
8909;SDS011;4490;49.072;8.804;2022-09-09T17:43:27;2.93;;;0.90;;
8909;SDS011;4490;49.072;8.804;2022-09-09T17:45:53;1.10;;;0.70;;
8909;SDS011;4490;49.072;8.804;2022-09-09T17:48:19;2.27;;;0.90;;
8909;SDS011;4490;49.072;8.804;2022-09-09T17:50:45;1.52;;;0.85;;
8909;SDS011;4490;49.072;8.804;2022-09-09T17:53:11;2.33;;;0.90;;